createdAt,value
2022-12-18T00:04:22.407Z,-6
2022-12-18T00:09:22.395Z,-6
2022-12-18T00:14:22.385Z,-6
2022-12-18T00:19:22.363Z,-6
2022-12-18T00:24:22.531Z,-6
2022-12-18T00:29:22.349Z,-6
2022-12-18T00:34:22.330Z,-6
2022-12-18T00:39:22.312Z,-6.1
2022-12-18T00:44:22.296Z,-6.1
2022-12-18T00:49:22.287Z,-6
2022-12-18T00:54:22.276Z,-6
2022-12-18T00:59:22.265Z,-6
2022-12-18T01:04:22.268Z,-6.1
2022-12-18T01:09:22.240Z,-6.1
2022-12-18T01:14:22.230Z,-6.1
2022-12-18T01:19:22.216Z,-6.1
2022-12-18T01:24:22.210Z,-6.1
2022-12-18T01:29:22.188Z,-6.1
2022-12-18T01:34:22.184Z,-6.1
2022-12-18T01:39:22.167Z,-6.1
2022-12-18T01:44:22.149Z,-6.2
2022-12-18T01:49:22.142Z,-6.3
2022-12-18T01:54:22.122Z,-6.3
2022-12-18T01:59:22.112Z,-6.3
2022-12-18T02:04:22.100Z,-6.4
2022-12-18T02:09:22.090Z,-6.4
2022-12-18T02:14:22.091Z,-6.4
2022-12-18T02:19:22.061Z,-6.4
2022-12-18T02:24:22.053Z,-6.4
2022-12-18T02:29:22.064Z,-6.4
2022-12-18T02:34:22.022Z,-6.4
2022-12-18T02:39:22.007Z,-6.4
2022-12-18T02:44:22.012Z,-6.4
2022-12-18T02:49:22.004Z,-6.4
2022-12-18T02:54:21.980Z,-6.5
2022-12-18T02:59:21.970Z,-6.5
2022-12-18T03:04:21.948Z,-6.6
2022-12-18T03:09:21.937Z,-6.5
2022-12-18T03:14:21.923Z,-6.6
2022-12-18T03:19:21.909Z,-6.6
2022-12-18T03:24:21.899Z,-6.7
2022-12-18T03:29:21.912Z,-6.7
2022-12-18T03:34:21.892Z,-6.8
2022-12-18T03:39:21.859Z,-6.8
2022-12-18T03:44:21.854Z,-6.8
2022-12-18T03:49:21.836Z,-6.8
2022-12-18T03:54:21.860Z,-6.8
2022-12-18T03:59:21.824Z,-6.8
2022-12-18T04:04:21.798Z,-6.8
2022-12-18T04:09:21.794Z,-6.8
2022-12-18T04:14:21.777Z,-6.8
2022-12-18T04:19:21.760Z,-6.8
2022-12-18T04:24:21.755Z,-6.9
2022-12-18T04:29:21.745Z,-6.9
2022-12-18T04:34:21.752Z,-6.9
2022-12-18T04:39:21.712Z,-6.9
2022-12-18T04:44:21.697Z,-6.9
2022-12-18T04:49:21.680Z,-6.9
2022-12-18T04:54:21.693Z,-7
2022-12-18T04:59:21.666Z,-7
2022-12-18T05:04:21.650Z,-7
2022-12-18T05:09:21.728Z,-7.1
2022-12-18T05:14:21.626Z,-7.1
2022-12-18T05:19:21.613Z,-7.1
2022-12-18T05:24:21.617Z,-7.2
2022-12-18T05:29:21.602Z,-7.2
2022-12-18T05:34:21.622Z,-7.3
2022-12-18T05:39:21.567Z,-7.3
2022-12-18T05:44:21.555Z,-7.3
2022-12-18T05:49:21.545Z,-7.4
2022-12-18T05:54:21.593Z,-7.3
2022-12-18T05:59:21.510Z,-7.4
2022-12-18T06:04:21.508Z,-7.4
2022-12-18T06:09:21.498Z,-7.5
2022-12-18T06:14:21.478Z,-7.4
2022-12-18T06:19:21.470Z,-7.4
2022-12-18T06:24:21.538Z,-7.3
2022-12-18T06:29:21.447Z,-7.4
2022-12-18T06:34:21.439Z,-7.4
2022-12-18T06:39:21.428Z,-7.4
2022-12-18T06:44:21.410Z,-7.4
2022-12-18T06:49:21.396Z,-7.4
2022-12-18T06:54:21.392Z,-7.3
2022-12-18T06:59:21.369Z,-7.3
2022-12-18T07:04:21.355Z,-7.3
2022-12-18T07:09:21.346Z,-7.4
2022-12-18T07:14:21.337Z,-7.3
2022-12-18T07:19:21.346Z,-7.3
2022-12-18T07:24:21.319Z,-7.4
2022-12-18T07:29:21.300Z,-7.4
2022-12-18T07:34:21.297Z,-7.5
2022-12-18T07:39:21.430Z,-7.5
2022-12-18T07:44:21.286Z,-7.5
2022-12-18T07:49:21.258Z,-7.6
2022-12-18T07:54:21.258Z,-7.6
2022-12-18T07:59:21.230Z,-7.6
2022-12-18T08:04:21.233Z,-7.6
2022-12-18T08:09:21.223Z,-7.6
2022-12-18T08:14:21.232Z,-7.6
2022-12-18T08:19:21.253Z,-7.7
2022-12-18T08:24:21.179Z,-7.6
2022-12-18T08:29:21.161Z,-7.6
2022-12-18T08:34:21.159Z,-7.6
2022-12-18T08:39:21.139Z,-7.5
2022-12-18T08:44:21.137Z,-7.5
2022-12-18T08:49:21.107Z,-7.6
2022-12-18T08:54:21.097Z,-7.5
2022-12-18T08:59:21.173Z,-7.2
2022-12-18T09:04:21.076Z,-7.1
2022-12-18T09:09:21.084Z,-7.2
2022-12-18T09:14:21.055Z,-7.2
2022-12-18T09:19:21.097Z,-7.2
2022-12-18T09:24:21.118Z,-7.2
2022-12-18T09:29:21.035Z,-7.2
2022-12-18T09:34:21.002Z,-7.2
2022-12-18T09:39:20.997Z,-7
2022-12-18T09:44:20.973Z,-7
2022-12-18T09:49:20.994Z,-6.9
2022-12-18T09:54:20.950Z,-6.8
2022-12-18T09:59:20.941Z,-6.5
2022-12-18T10:04:20.912Z,-6.3
2022-12-18T10:09:20.921Z,-6.3
2022-12-18T10:14:20.899Z,-6.2
2022-12-18T10:19:20.889Z,-6.2
2022-12-18T10:24:20.873Z,-6
2022-12-18T10:29:20.857Z,-5.7
2022-12-18T10:34:20.846Z,-5.6
2022-12-18T10:39:20.831Z,-5.3
2022-12-18T10:44:20.892Z,-5.4
2022-12-18T10:49:20.864Z,-4.9
2022-12-18T10:54:20.922Z,-4.7
2022-12-18T10:59:20.905Z,-4.6
2022-12-18T11:04:20.759Z,-4.4
2022-12-18T11:09:20.741Z,-4.3
2022-12-18T11:14:20.755Z,-4.3
2022-12-18T11:19:20.721Z,-4.6
2022-12-18T11:24:20.702Z,-4.5
2022-12-18T11:29:20.702Z,-4.9
2022-12-18T11:34:20.675Z,-5
2022-12-18T11:39:20.657Z,-5
2022-12-18T11:44:20.646Z,-4.7
2022-12-18T11:49:20.635Z,-4.5
2022-12-18T11:54:20.624Z,-4.6
2022-12-18T11:59:20.649Z,-4.5
2022-12-18T12:04:20.591Z,-4.8
2022-12-18T12:09:20.585Z,-4.8
2022-12-18T12:14:20.562Z,-4.9
2022-12-18T12:19:20.574Z,-4.9
2022-12-18T12:24:20.544Z,-5
2022-12-18T12:29:20.600Z,-4.8
2022-12-18T12:34:20.512Z,-4.9
2022-12-18T12:39:20.540Z,-4.7
2022-12-18T12:44:20.663Z,-4.8
2022-12-18T12:49:20.485Z,-4.7
2022-12-18T12:54:20.456Z,-4.9
2022-12-18T12:59:20.454Z,-4.7
2022-12-18T13:04:20.443Z,-4.7
2022-12-18T13:09:21.132Z,-4.6
2022-12-18T13:14:20.398Z,-4.5
2022-12-18T13:19:20.431Z,-4.5
2022-12-18T13:24:20.374Z,-4.5
2022-12-18T13:29:20.368Z,-4.5
2022-12-18T13:34:20.439Z,-4.5
2022-12-18T13:39:20.483Z,-4.3
2022-12-18T13:44:20.335Z,-4.4
2022-12-18T13:49:20.303Z,-4.4
2022-12-18T13:54:20.293Z,-4.3
2022-12-18T13:59:20.376Z,-4.4
2022-12-18T14:04:20.361Z,-4.3
2022-12-18T14:09:20.245Z,-4.4
2022-12-18T14:14:20.325Z,-4.4
2022-12-18T14:19:20.228Z,-4.4
2022-12-18T14:24:20.209Z,-4.5
2022-12-18T14:29:20.225Z,-4.5
2022-12-18T14:34:20.189Z,-4.5
2022-12-18T14:39:20.176Z,-4.6
2022-12-18T14:44:20.150Z,-4.7
2022-12-18T14:49:20.149Z,-4.8
2022-12-18T14:54:20.140Z,-4.9
2022-12-18T14:59:20.118Z,-5
2022-12-18T15:04:20.103Z,-5
2022-12-18T15:09:20.089Z,-5.1
2022-12-18T15:14:20.071Z,-5.1
2022-12-18T15:19:20.054Z,-5.2
2022-12-18T15:24:20.057Z,-5.2
2022-12-18T15:29:20.027Z,-5.2
2022-12-18T15:34:20.025Z,-5.3
2022-12-18T15:39:20.006Z,-5.3
2022-12-18T15:44:19.997Z,-5.3
2022-12-18T15:49:19.979Z,-5.3
2022-12-18T15:54:19.960Z,-5.3
2022-12-18T15:59:19.955Z,-5.3
2022-12-18T16:04:19.937Z,-5.3
2022-12-18T16:09:19.924Z,-5.3
2022-12-18T16:14:19.940Z,-5.3
2022-12-18T16:19:19.900Z,-5.3
2022-12-18T16:24:19.893Z,-5.2
2022-12-18T16:29:19.877Z,-5.2
2022-12-18T16:34:19.851Z,-5.2
2022-12-18T16:39:19.846Z,-5.2
2022-12-18T16:44:19.832Z,-5.2
2022-12-18T16:49:19.827Z,-5.2
2022-12-18T16:54:19.858Z,-5.2
2022-12-18T16:59:19.798Z,-5.1
2022-12-18T17:04:19.781Z,-5.1
2022-12-18T17:09:19.764Z,-5.1
2022-12-18T17:14:19.746Z,-5.1
2022-12-18T17:19:19.797Z,-5.1
2022-12-18T17:24:19.731Z,-5.1
2022-12-18T17:29:19.709Z,-5.1
2022-12-18T17:34:19.764Z,-5.1
2022-12-18T17:39:19.696Z,-5.1
2022-12-18T17:44:19.677Z,-5.1
2022-12-18T17:49:19.669Z,-5.1
2022-12-18T17:54:19.708Z,-5.1
2022-12-18T17:59:19.633Z,-5.1
2022-12-18T18:04:19.622Z,-5.1
2022-12-18T18:09:19.603Z,-5.1
2022-12-18T18:19:19.578Z,-5
2022-12-18T18:24:19.616Z,-5
2022-12-18T18:29:19.612Z,-5
2022-12-18T18:34:19.537Z,-5
2022-12-18T18:39:19.529Z,-5
2022-12-18T18:44:19.520Z,-5
2022-12-18T18:49:19.574Z,-5
2022-12-18T18:54:19.500Z,-5
2022-12-18T18:59:19.465Z,-5
2022-12-18T19:04:19.462Z,-4.9
2022-12-18T19:09:19.442Z,-4.9
2022-12-18T19:14:19.435Z,-4.9
2022-12-18T19:19:19.951Z,-4.9
2022-12-18T19:24:19.401Z,-4.8
2022-12-18T19:29:19.396Z,-4.8
2022-12-18T19:34:19.382Z,-4.8
2022-12-18T19:39:19.361Z,-4.8
2022-12-18T19:44:19.352Z,-4.7
2022-12-18T19:49:19.335Z,-4.7
2022-12-18T19:54:19.349Z,-4.7
2022-12-18T19:59:19.322Z,-4.7
2022-12-18T20:04:19.300Z,-4.7
2022-12-18T20:09:19.285Z,-4.7
2022-12-18T20:14:19.269Z,-4.6
2022-12-18T20:19:19.275Z,-4.6
2022-12-18T20:24:19.244Z,-4.6
2022-12-18T20:29:19.238Z,-4.6
2022-12-18T20:34:19.214Z,-4.6
2022-12-18T20:39:19.233Z,-4.6
2022-12-18T20:44:19.197Z,-4.5
2022-12-18T20:49:19.172Z,-4.4
2022-12-18T20:54:19.155Z,-4.4
2022-12-18T20:59:19.142Z,-4.3
2022-12-18T21:04:19.151Z,-4.3
2022-12-18T21:09:19.383Z,-4.2
2022-12-18T21:14:19.126Z,-4.2
2022-12-18T21:19:19.092Z,-4.2
2022-12-18T21:24:19.074Z,-4.2
2022-12-18T21:29:19.054Z,-4.1
2022-12-18T21:34:19.053Z,-4.1
2022-12-18T21:39:19.040Z,-4.1
2022-12-18T21:44:19.022Z,-4
2022-12-18T21:49:19.012Z,-4
2022-12-18T21:54:18.991Z,-4
2022-12-18T21:59:19.049Z,-3.9
2022-12-18T22:04:18.959Z,-3.9
2022-12-18T22:09:18.954Z,-3.8
2022-12-18T22:14:18.936Z,-3.7
2022-12-18T22:19:18.918Z,-3.7
2022-12-18T22:24:18.905Z,-3.6
2022-12-18T22:29:18.924Z,-3.6
2022-12-18T22:34:18.889Z,-3.6
2022-12-18T22:39:18.861Z,-3.5
2022-12-18T22:44:18.847Z,-3.5
2022-12-18T22:49:18.837Z,-3.4
2022-12-18T22:54:18.837Z,-3.4
2022-12-18T22:59:18.813Z,-3.3
2022-12-18T23:04:18.792Z,-3.3
2022-12-18T23:09:18.781Z,-3.2
2022-12-18T23:14:18.759Z,-3.2
2022-12-18T23:19:18.752Z,-3.1
2022-12-18T23:24:18.735Z,-3
2022-12-18T23:29:18.725Z,-3
2022-12-18T23:34:18.702Z,-2.9
2022-12-18T23:39:18.696Z,-2.8
2022-12-18T23:44:18.677Z,-2.7
2022-12-18T23:49:18.659Z,-2.5
2022-12-18T23:54:18.649Z,-2.3
2022-12-18T23:59:18.630Z,-2.1
